map of CTM home
CTM - Airport
Location
City:  Chetumal, Quintana Roo, México
Name:Chetumal International Airport
ICAO:MMCM
IATA:CTM

Details
Type:Airport (Aerodrome, Airfield)
Use:Public/Civil, International (customs port of entry)
Latitude:18°30'17"N (18.504667)
Longitude:88°19'37"W (-88.326846)
Datum:WGS 1984
Elevation:39 ft (12 m)
Variation:0.82°W (WMM2015 magnetic declination)
-0.14° annual change
Runways:1
Longest:7244 × 151 ft (2208 × 46 m), paved

Time
Time Zone:UTC-5
Local Time:

Weather
METAR:MMCM 170940Z 00000KT 7SM SCT015 20/17 A3012 RMK 8/600 RTS

Related Locations
Nearby:
Farthest:CCK: 11883 mi / 19124 km
West Island (Pulau Panjang) [Cocos (Keeling) Islands], CC

Find:

   beyond  
but within

Other Information
Maps:
NOTAMs:
Links:
Sources:

  
  • flag of México
  • flag of Quintana Roo
  

Sectional Chart

Flight Planning
at skyvector.com

Satellite Image

Google Maps Satellite view

 

Copyright © 2004-2018 Karl L. Swartz. All rights reserved.
The Great Circle Mapper name and logo are trademarks of the Great Circle Mapper.
All other trademarks mentioned herein belong to their respective owners.
Please see credits for attibutions and further copyright information.

  Follow gcmap on Facebook Follow gcmap on Twitter Follow gcmap on Google+ GCmap on LinkedIn

hCard Microformat

Geo Microformat